createdAt,value
2022-11-24T00:03:40.381Z,18.12
2022-11-24T00:08:44.860Z,21.40
2022-11-24T00:13:48.236Z,21.15
2022-11-24T00:18:51.811Z,21.45
2022-11-24T00:23:53.475Z,16.80
2022-11-24T00:28:57.943Z,24.45
2022-11-24T00:34:03.313Z,14.32
2022-11-24T00:39:06.732Z,11.07
2022-11-24T00:44:09.880Z,19.87
2022-11-24T00:49:11.598Z,13.27
2022-11-24T00:54:13.327Z,23.65
2022-11-24T00:59:16.411Z,12.48
2022-11-24T01:04:18.177Z,17.95
2022-11-24T01:09:19.968Z,16.52
2022-11-24T01:14:24.769Z,17.40
2022-11-24T01:19:26.656Z,20.73
2022-11-24T01:24:28.303Z,17.80
2022-11-24T01:29:31.473Z,15.27
2022-11-24T01:34:33.470Z,19.20
2022-11-24T01:39:35.281Z,11.25
2022-11-24T01:44:38.375Z,18.90
2022-11-24T01:49:46.798Z,21.67
2022-11-24T01:54:54.903Z,18.77
2022-11-24T02:00:01.830Z,28.27
2022-11-24T02:05:06.173Z,29.25
2022-11-24T02:10:13.202Z,34.57
2022-11-24T02:15:17.875Z,26.08
2022-11-24T02:20:19.747Z,27.23
2022-11-24T02:25:31.186Z,23.50
2022-11-24T02:30:34.926Z,28.23
2022-11-24T02:35:36.759Z,23.27
2022-11-24T02:40:39.709Z,26.60
2022-11-24T02:45:42.760Z,28.17
2022-11-24T02:50:44.507Z,37.38
2022-11-24T02:55:46.207Z,24.25
2022-11-24T03:00:49.633Z,27.08
2022-11-24T03:05:51.408Z,16.73
2022-11-24T03:10:53.119Z,22.50
2022-11-24T03:15:56.296Z,26.30
2022-11-24T03:20:59.835Z,19.83
2022-11-24T03:26:07.907Z,21.00
2022-11-24T03:31:11.812Z,17.55
2022-11-24T03:36:13.639Z,28.92
2022-11-24T03:41:15.430Z,30.85
2022-11-24T03:46:18.575Z,20.33
2022-11-24T03:51:20.301Z,22.00
2022-11-24T03:56:22.007Z,14.38
2022-11-24T04:01:25.102Z,30.70
2022-11-24T04:06:26.855Z,25.05
2022-11-24T04:11:28.533Z,26.80
2022-11-24T04:16:31.667Z,33.40
2022-11-24T04:21:33.401Z,32.42
2022-11-24T04:26:35.143Z,27.25
2022-11-24T04:31:38.362Z,22.42
2022-11-24T04:36:40.159Z,31.10
2022-11-24T04:41:41.851Z,26.58
2022-11-24T04:46:44.910Z,26.40
2022-11-24T04:51:46.896Z,28.52
2022-11-24T04:56:50.814Z,28.58
2022-11-24T05:01:53.935Z,33.35
2022-11-24T05:06:55.661Z,34.60
2022-11-24T05:11:57.435Z,31.60
2022-11-24T05:17:03.098Z,30.25
2022-11-24T05:22:04.772Z,26.48
2022-11-24T05:27:06.544Z,23.27
2022-11-24T05:32:09.643Z,32.72
2022-11-24T05:37:11.445Z,26.50
2022-11-24T05:42:13.238Z,33.17
2022-11-24T05:47:16.671Z,32.60
2022-11-24T05:52:18.391Z,26.02
2022-11-24T05:57:20.137Z,19.48
2022-11-24T06:02:23.372Z,21.08
2022-11-24T06:07:25.194Z,23.30
2022-11-24T06:12:26.915Z,22.55
2022-11-24T06:17:30.035Z,22.65
2022-11-24T06:22:31.936Z,15.52
2022-11-24T06:27:33.647Z,25.35
2022-11-24T06:32:36.873Z,20.67
2022-11-24T06:37:38.687Z,25.00
2022-11-24T06:42:40.342Z,27.15
2022-11-24T06:47:43.399Z,22.95
2022-11-24T06:52:45.125Z,27.75
2022-11-24T06:57:46.810Z,22.98
2022-11-24T07:02:49.953Z,39.05
2022-11-24T07:07:51.842Z,18.42
2022-11-24T07:12:53.669Z,25.50
2022-11-24T07:17:56.783Z,27.30
2022-11-24T07:22:59.109Z,21.55
2022-11-24T07:28:00.865Z,23.52
2022-11-24T07:33:04.188Z,19.27
2022-11-24T07:38:05.956Z,25.12
2022-11-24T07:43:07.682Z,19.35
2022-11-24T07:48:10.810Z,27.90
2022-11-24T07:53:12.567Z,23.35
2022-11-24T07:58:14.217Z,24.87
2022-11-24T08:03:17.367Z,27.13
2022-11-24T08:08:19.067Z,17.37
2022-11-24T08:13:20.764Z,19.73
2022-11-24T08:18:23.816Z,25.35
2022-11-24T08:23:26.466Z,23.83
2022-11-24T08:28:28.374Z,20.75
2022-11-24T08:33:32.038Z,14.40
2022-11-24T08:38:34.108Z,21.02
2022-11-24T08:43:36.373Z,15.75
2022-11-24T08:48:39.884Z,17.52
2022-11-24T08:53:41.972Z,24.02
2022-11-24T08:58:43.684Z,15.00
2022-11-24T09:03:50.753Z,16.98
2022-11-24T09:08:54.405Z,24.23
2022-11-24T09:13:56.309Z,14.45
2022-11-24T09:19:01.325Z,18.62
2022-11-24T09:24:03.372Z,14.30
2022-11-24T09:29:06.408Z,16.92
2022-11-24T09:34:12.913Z,26.25
2022-11-24T09:39:14.580Z,20.52
2022-11-24T09:44:49.494Z,22.95
2022-11-24T09:49:58.170Z,16.37
2022-11-24T09:55:02.762Z,19.17
2022-11-24T10:00:13.136Z,21.92
2022-11-24T10:05:16.398Z,19.08
2022-11-24T10:10:25.100Z,22.20
2022-11-24T10:15:40.925Z,20.20
2022-11-24T10:20:54.574Z,14.27
2022-11-24T10:25:58.540Z,20.77
2022-11-24T10:31:17.266Z,15.57
2022-11-24T10:36:28.655Z,14.65
2022-11-24T10:41:39.939Z,12.30
2022-11-24T10:46:41.845Z,16.75
2022-11-24T10:51:54.560Z,17.42
2022-11-24T10:56:56.441Z,15.10
2022-11-24T11:01:58.850Z,12.52
2022-11-24T11:07:16.921Z,16.67
2022-11-24T11:12:46.136Z,13.32
2022-11-24T11:17:50.432Z,14.68
2022-11-24T11:22:58.800Z,16.05
2022-11-24T11:28:25.256Z,11.02
2022-11-24T11:38:52.904Z,11.30
2022-11-24T11:44:04.547Z,18.52
2022-11-24T11:49:10.508Z,12.15
2022-11-24T11:54:26.740Z,10.45
2022-11-24T11:59:55.730Z,10.63
2022-11-24T12:05:00.714Z,11.18
2022-11-24T12:10:15.282Z,16.58
2022-11-24T12:15:22.620Z,14.57
2022-11-24T12:20:37.338Z,12.20
2022-11-24T12:25:45.376Z,16.43
2022-11-24T12:30:51.846Z,14.57
2022-11-24T12:36:03.406Z,12.65
2022-11-24T12:41:41.029Z,10.95
2022-11-24T12:46:51.530Z,10.65
2022-11-24T12:51:59.734Z,10.82
2022-11-24T12:57:12.204Z,15.65
2022-11-24T13:02:25.089Z,10.75
2022-11-24T13:07:39.580Z,18.48
2022-11-24T13:12:55.163Z,13.00
2022-11-24T13:18:07.197Z,12.48
2022-11-24T13:23:29.440Z,14.73
2022-11-24T13:29:03.583Z,12.63
2022-11-24T13:34:48.199Z,15.50
2022-11-24T13:39:52.274Z,11.70
2022-11-24T13:44:58.174Z,11.27
2022-11-24T13:50:00.930Z,12.10
2022-11-24T13:55:18.131Z,13.90
2022-11-24T14:00:24.241Z,12.43
2022-11-24T14:05:33.496Z,12.63
2022-11-24T14:10:37.432Z,12.50
2022-11-24T14:15:40.734Z,11.27
2022-11-24T14:20:42.580Z,11.50
2022-11-24T14:25:48.797Z,13.65
2022-11-24T14:31:05.787Z,16.92
2022-11-24T14:36:14.500Z,12.48
2022-11-24T14:41:21.875Z,18.00
2022-11-24T14:46:25.100Z,13.32
2022-11-24T14:51:29.935Z,13.80
2022-11-24T14:56:34.331Z,17.08
2022-11-24T15:01:37.725Z,13.83
2022-11-24T15:06:40.223Z,11.23
2022-11-24T15:11:41.933Z,15.25
2022-11-24T15:16:45.116Z,11.52
2022-11-24T15:21:46.819Z,16.02
2022-11-24T15:26:48.506Z,16.12
2022-11-24T15:31:53.063Z,12.10
2022-11-24T15:36:54.996Z,19.08
2022-11-24T15:41:56.762Z,19.87
2022-11-24T15:47:00.066Z,19.37
2022-11-24T15:52:01.861Z,21.17
2022-11-24T15:57:03.740Z,15.32
2022-11-24T16:02:09.061Z,19.92
2022-11-24T16:07:12.391Z,18.95
2022-11-24T16:12:14.148Z,15.02
2022-11-24T16:17:17.260Z,12.93
2022-11-24T16:22:19.004Z,14.02
2022-11-24T16:27:20.833Z,18.45
2022-11-24T16:32:23.952Z,17.70
2022-11-24T16:37:25.792Z,19.52
2022-11-24T16:42:27.709Z,17.95
2022-11-24T16:47:30.812Z,17.15
2022-11-24T16:52:32.543Z,16.50
2022-11-24T16:57:34.972Z,16.87
2022-11-24T17:02:38.128Z,21.05
2022-11-24T17:07:42.562Z,17.23
2022-11-24T17:12:44.373Z,24.57
2022-11-24T17:18:08.737Z,24.70
2022-11-24T17:23:08.983Z,21.90
2022-11-24T17:28:10.655Z,19.30
2022-11-24T17:33:13.739Z,20.05
2022-11-24T17:38:15.429Z,31.42
2022-11-24T17:43:17.227Z,25.35
2022-11-24T17:48:20.802Z,15.82
2022-11-24T17:53:22.457Z,30.40
2022-11-24T17:58:26.294Z,26.17
2022-11-24T18:03:29.326Z,25.98
2022-11-24T18:08:32.566Z,21.12
2022-11-24T18:13:55.819Z,24.75
2022-11-24T18:19:07.707Z,24.85
2022-11-24T18:24:12.095Z,29.00
2022-11-24T18:29:13.758Z,27.23
2022-11-24T18:34:16.839Z,30.27
2022-11-24T18:39:18.612Z,33.83
2022-11-24T18:44:20.383Z,28.48
2022-11-24T18:49:23.489Z,21.87
2022-11-24T18:54:26.778Z,20.73
2022-11-24T18:59:28.496Z,27.20
2022-11-24T19:04:31.513Z,27.65
2022-11-24T19:09:33.285Z,31.12
2022-11-24T19:14:35.200Z,27.60
2022-11-24T19:19:38.444Z,28.02
2022-11-24T19:24:40.135Z,37.67
2022-11-24T19:29:43.226Z,27.77
2022-11-24T19:34:46.487Z,32.65
2022-11-24T19:39:48.185Z,32.72
2022-11-24T19:44:56.033Z,24.20
2022-11-24T19:49:59.695Z,28.70
2022-11-24T19:55:01.329Z,28.58
2022-11-24T20:00:03.399Z,23.02
2022-11-24T20:05:07.062Z,21.90
2022-11-24T20:10:09.456Z,38.85
2022-11-24T20:15:11.158Z,27.42
2022-11-24T20:25:30.636Z,30.62
2022-11-24T20:30:32.987Z,29.65
2022-11-24T20:35:34.642Z,25.67
2022-11-24T20:40:37.739Z,32.55
2022-11-24T20:45:39.479Z,27.58
2022-11-24T20:50:41.203Z,28.75
2022-11-24T20:55:44.352Z,22.52
2022-11-24T21:00:46.127Z,29.48
2022-11-24T21:05:54.638Z,24.87
2022-11-24T21:10:59.082Z,21.87
2022-11-24T21:16:10.519Z,28.60
2022-11-24T21:21:12.668Z,31.80
2022-11-24T21:26:17.355Z,28.90
2022-11-24T21:36:25.822Z,25.65
2022-11-24T21:41:31.387Z,34.00
2022-11-24T21:46:33.189Z,32.30
2022-11-24T21:51:34.922Z,21.17
2022-11-24T21:56:37.969Z,21.20
2022-11-24T22:01:39.721Z,25.17
2022-11-24T22:06:41.496Z,23.05
2022-11-24T22:11:44.759Z,26.75
2022-11-24T22:16:46.632Z,30.23
2022-11-24T22:21:48.592Z,24.02
2022-11-24T22:26:51.662Z,28.50
2022-11-24T22:31:53.482Z,34.35
2022-11-24T22:36:55.208Z,24.20
2022-11-24T22:41:58.233Z,43.80
2022-11-24T22:46:59.898Z,34.88
2022-11-24T22:52:01.648Z,40.63
2022-11-24T22:57:04.754Z,37.85
2022-11-24T23:02:06.620Z,43.35
2022-11-24T23:07:08.406Z,45.85
2022-11-24T23:12:11.459Z,27.30
2022-11-24T23:17:13.115Z,33.97
2022-11-24T23:22:14.782Z,32.95
2022-11-24T23:27:17.856Z,35.38
2022-11-24T23:32:19.635Z,39.08
2022-11-24T23:37:26.511Z,30.73
2022-11-24T23:47:39.112Z,21.02
2022-11-24T23:52:40.826Z,31.37
2022-11-24T23:57:43.920Z,19.30
